createdAt,value
2019-03-20T00:00:12.867Z,5.73
2019-03-20T00:02:41.731Z,5.64
2019-03-20T00:05:10.693Z,5.58
2019-03-20T00:07:39.631Z,5.60
2019-03-20T00:10:09.598Z,5.58
2019-03-20T00:12:38.924Z,5.96
2019-03-20T00:15:09.377Z,5.76
2019-03-20T00:17:38.404Z,5.79
2019-03-20T00:20:08.564Z,6.16
2019-03-20T00:22:37.473Z,5.96
2019-03-20T00:25:06.577Z,6.00
2019-03-20T00:27:35.598Z,6.01
2019-03-20T00:30:04.831Z,6.40
2019-03-20T00:32:33.843Z,6.14
2019-03-20T00:35:02.818Z,6.11
2019-03-20T00:37:31.850Z,6.08
2019-03-20T00:40:00.772Z,6.17
2019-03-20T00:42:29.643Z,6.15
2019-03-20T00:44:58.614Z,6.08
2019-03-20T00:47:27.622Z,6.15
2019-03-20T00:49:58.111Z,6.14
2019-03-20T00:52:25.562Z,6.16
2019-03-20T00:54:54.532Z,6.46
2019-03-20T00:57:23.467Z,6.29
2019-03-20T00:59:52.395Z,6.27
2019-03-20T01:02:21.545Z,6.34
2019-03-20T01:04:50.461Z,6.30
2019-03-20T01:07:19.415Z,6.70
2019-03-20T01:09:48.403Z,6.85
2019-03-20T01:12:17.800Z,6.53
2019-03-20T01:14:46.308Z,6.48
2019-03-20T01:17:15.317Z,6.49
2019-03-20T01:19:44.309Z,6.51
2019-03-20T01:22:15.130Z,6.54
2019-03-20T01:24:44.030Z,6.59
2019-03-20T01:27:13.018Z,7.07
2019-03-20T01:29:41.977Z,7.31
2019-03-20T01:32:10.984Z,7.03
2019-03-20T01:34:39.984Z,6.94
2019-03-20T01:37:08.964Z,6.95
2019-03-20T01:39:37.959Z,7.02
2019-03-20T01:42:06.957Z,6.99
2019-03-20T01:44:35.969Z,7.05
2019-03-20T01:47:06.855Z,7.11
2019-03-20T01:49:33.883Z,7.11
2019-03-20T01:52:02.842Z,7.57
2019-03-20T01:54:31.880Z,7.79
2019-03-20T01:57:00.862Z,7.53
2019-03-20T01:59:29.801Z,7.30
2019-03-20T02:01:58.847Z,7.40
2019-03-20T02:04:27.792Z,7.45
2019-03-20T02:06:56.861Z,7.46
2019-03-20T02:09:25.781Z,7.46
2019-03-20T02:11:54.797Z,7.41
2019-03-20T02:14:23.765Z,7.38
2019-03-20T02:16:52.761Z,7.42
2019-03-20T02:19:21.749Z,7.44
2019-03-20T02:21:50.783Z,7.46
2019-03-20T02:24:19.743Z,7.45
2019-03-20T02:26:48.794Z,7.46
2019-03-20T02:29:17.727Z,7.45
2019-03-20T02:31:46.722Z,7.46
2019-03-20T02:34:15.755Z,7.50
2019-03-20T02:36:44.746Z,7.53
2019-03-20T02:39:13.702Z,7.53
2019-03-20T02:41:42.705Z,7.57
2019-03-20T02:44:11.658Z,7.62
2019-03-20T02:46:40.679Z,7.56
2019-03-20T02:49:09.704Z,7.59
2019-03-20T02:51:38.693Z,8.00
2019-03-20T02:54:07.761Z,7.79
2019-03-20T02:56:36.747Z,7.71
2019-03-20T02:59:05.610Z,7.70
2019-03-20T03:01:34.580Z,7.72
2019-03-20T03:04:03.657Z,7.74
2019-03-20T03:06:32.555Z,7.68
2019-03-20T03:09:06.165Z,7.67
2019-03-20T03:11:35.194Z,7.71
2019-03-20T03:14:04.117Z,8.13
2019-03-20T03:16:33.108Z,7.89
2019-03-20T03:19:02.213Z,7.76
2019-03-20T03:21:31.150Z,7.81
2019-03-20T03:24:00.165Z,7.75
2019-03-20T03:26:29.198Z,7.77
2019-03-20T03:28:58.278Z,8.14
2019-03-20T03:31:27.123Z,7.86
2019-03-20T03:33:56.081Z,7.89
2019-03-20T03:36:25.069Z,7.86
2019-03-20T03:38:54.067Z,7.77
2019-03-20T03:41:23.055Z,7.77
2019-03-20T03:43:52.025Z,7.88
2019-03-20T03:46:20.996Z,7.89
2019-03-20T03:48:50.099Z,8.27
2019-03-20T03:51:19.013Z,8.48
2019-03-20T03:53:48.026Z,8.21
2019-03-20T03:56:17.037Z,8.14
2019-03-20T03:58:46.092Z,8.12
2019-03-20T04:01:15.031Z,8.03
2019-03-20T04:03:44.052Z,7.90
2019-03-20T04:06:13.043Z,7.86
2019-03-20T04:08:42.013Z,7.70
2019-03-20T04:11:10.966Z,7.73
2019-03-20T04:13:40.212Z,7.61
2019-03-20T04:16:09.266Z,7.67
2019-03-20T04:18:38.254Z,7.60
2019-03-20T04:21:10.478Z,7.60
2019-03-20T04:23:39.417Z,7.50
2019-03-20T04:26:08.423Z,7.55
2019-03-20T04:28:37.438Z,7.52
2019-03-20T04:31:06.485Z,7.50
2019-03-20T04:33:35.405Z,7.49
2019-03-20T04:36:04.490Z,7.46
2019-03-20T04:38:33.432Z,7.46
2019-03-20T04:41:02.504Z,7.37
2019-03-20T04:43:31.452Z,7.37
2019-03-20T04:46:00.473Z,7.39
2019-03-20T04:48:29.497Z,7.33
2019-03-20T04:50:58.492Z,7.38
2019-03-20T04:53:30.169Z,7.41
2019-03-20T04:55:59.119Z,7.43
2019-03-20T04:58:28.111Z,7.76
2019-03-20T05:00:56.998Z,7.61
2019-03-20T05:03:25.924Z,8.00
2019-03-20T05:05:54.936Z,7.68
2019-03-20T05:08:24.005Z,7.67
2019-03-20T05:10:53.071Z,7.68
2019-03-20T05:13:23.658Z,7.76
2019-03-20T05:15:53.899Z,7.73
2019-03-20T05:18:24.599Z,8.17
2019-03-20T05:20:55.262Z,7.91
2019-03-20T05:23:26.071Z,7.89
2019-03-20T05:25:59.174Z,7.87
2019-03-20T05:28:27.031Z,7.87
2019-03-20T05:31:00.193Z,7.86
2019-03-20T05:33:30.365Z,7.89
2019-03-20T05:36:00.799Z,7.88
2019-03-20T05:38:30.938Z,7.91
2019-03-20T05:41:04.293Z,7.95
2019-03-20T05:43:35.108Z,7.94
2019-03-20T05:46:05.385Z,7.93
2019-03-20T05:48:35.929Z,7.97
2019-03-20T05:51:05.863Z,8.01
2019-03-20T05:53:36.538Z,7.91
2019-03-20T05:56:07.037Z,7.96
2019-03-20T05:58:40.229Z,7.96
2019-03-20T06:01:10.428Z,7.90
2019-03-20T06:03:40.886Z,7.99
2019-03-20T06:06:11.468Z,7.99
2019-03-20T06:08:41.868Z,8.05
2019-03-20T06:11:12.297Z,8.00
2019-03-20T06:13:43.238Z,8.13
2019-03-20T06:16:13.862Z,8.11
2019-03-20T06:18:44.705Z,8.12
2019-03-20T06:21:14.378Z,8.19
2019-03-20T06:23:44.595Z,8.19
2019-03-20T06:26:15.101Z,8.63
2019-03-20T06:28:48.728Z,8.39
2019-03-20T06:31:19.491Z,8.52
2019-03-20T06:33:50.408Z,8.62
2019-03-20T06:36:24.185Z,8.48
2019-03-20T06:38:55.128Z,8.49
2019-03-20T06:41:25.863Z,8.56
2019-03-20T06:43:56.705Z,8.59
2019-03-20T06:46:27.411Z,8.63
2019-03-20T06:48:58.321Z,8.68
2019-03-20T06:51:29.234Z,8.73
2019-03-20T06:54:00.343Z,8.96
2019-03-20T06:56:33.074Z,9.00
2019-03-20T06:59:50.953Z,8.97
2019-03-20T07:02:23.443Z,9.03
2019-03-20T07:05:31.580Z,9.11
2019-03-20T07:08:02.444Z,9.34
2019-03-20T07:11:13.184Z,9.39
2019-03-20T07:13:43.793Z,9.45
2019-03-20T07:16:16.559Z,9.49
2019-03-20T07:18:47.162Z,9.52
2019-03-20T07:21:18.750Z,9.45
2019-03-20T07:23:48.454Z,9.47
2019-03-20T07:26:23.346Z,9.45
2019-03-20T07:28:54.843Z,9.37
2019-03-20T07:31:25.755Z,9.39
2019-03-20T07:33:56.358Z,9.34
2019-03-20T07:36:28.370Z,9.19
2019-03-20T07:38:58.777Z,9.19
2019-03-20T07:41:29.721Z,9.27
2019-03-20T07:44:01.896Z,9.24
2019-03-20T07:46:32.931Z,9.46
2019-03-20T07:49:03.917Z,9.44
2019-03-20T07:51:34.742Z,9.39
2019-03-20T07:54:06.185Z,9.56
2019-03-20T07:56:36.720Z,9.77
2019-03-20T07:59:07.268Z,9.84
2019-03-20T08:01:40.991Z,9.79
2019-03-20T08:04:11.374Z,9.80
2019-03-20T08:06:42.328Z,10.20
2019-03-20T08:09:12.581Z,9.88
2019-03-20T08:11:45.665Z,9.85
2019-03-20T08:14:16.203Z,9.92
2019-03-20T08:16:46.571Z,9.88
2019-03-20T08:19:15.870Z,9.95
2019-03-20T08:21:44.967Z,9.87
2019-03-20T08:24:14.069Z,9.93
2019-03-20T08:26:43.570Z,10.04
2019-03-20T08:29:13.009Z,9.99
2019-03-20T08:31:42.187Z,10.03
2019-03-20T08:34:11.243Z,10.04
2019-03-20T08:36:40.279Z,10.09
2019-03-20T08:39:09.420Z,9.97
2019-03-20T08:41:38.792Z,10.11
2019-03-20T08:44:07.960Z,10.04
2019-03-20T08:46:36.921Z,9.80
2019-03-20T08:49:06.055Z,9.95
2019-03-20T08:51:35.642Z,10.00
2019-03-20T08:54:07.589Z,10.16
2019-03-20T08:56:36.600Z,10.04
2019-03-20T08:59:06.850Z,10.11
2019-03-20T09:01:35.842Z,10.23
2019-03-20T09:04:05.147Z,10.07
2019-03-20T09:06:34.240Z,9.91
2019-03-20T09:09:03.874Z,9.94
2019-03-20T09:11:32.882Z,10.12
2019-03-20T09:14:02.234Z,10.21
2019-03-20T09:16:31.261Z,10.30
2019-03-20T09:19:03.709Z,10.38
2019-03-20T09:21:35.095Z,10.53
2019-03-20T09:24:04.277Z,10.59
2019-03-20T09:26:36.515Z,10.81
2019-03-20T09:29:18.250Z,10.97
2019-03-20T09:31:38.101Z,10.84
2019-03-20T09:34:07.284Z,10.89
2019-03-20T09:36:42.991Z,10.90
2019-03-20T09:39:07.921Z,10.77
2019-03-20T09:41:37.102Z,10.90
2019-03-20T09:44:06.239Z,10.92
2019-03-20T09:46:35.285Z,10.86
2019-03-20T09:49:04.663Z,10.95
2019-03-20T09:51:33.991Z,10.83
2019-03-20T09:54:06.093Z,10.95
2019-03-20T09:56:38.426Z,10.90
2019-03-20T09:59:07.921Z,10.94
2019-03-20T10:01:36.947Z,10.91
2019-03-20T10:04:06.100Z,10.89
2019-03-20T10:06:35.089Z,11.01
2019-03-20T10:09:05.143Z,10.96
2019-03-20T10:11:34.666Z,10.91
2019-03-20T10:14:04.556Z,11.02
2019-03-20T10:16:33.733Z,11.04
2019-03-20T10:19:02.782Z,11.16
2019-03-20T10:21:34.439Z,11.10
2019-03-20T10:24:03.505Z,11.17
2019-03-20T10:26:32.503Z,11.19
2019-03-20T10:29:01.525Z,11.27
2019-03-20T10:31:30.605Z,11.22
2019-03-20T10:33:59.736Z,11.22
2019-03-20T10:36:28.914Z,11.41
2019-03-20T10:39:06.304Z,11.65
2019-03-20T10:41:26.863Z,11.67
2019-03-20T10:43:56.338Z,11.53
2019-03-20T10:46:25.815Z,11.52
2019-03-20T10:48:56.358Z,11.34
2019-03-20T10:51:23.777Z,11.59
2019-03-20T10:53:52.811Z,11.51
2019-03-20T10:56:22.232Z,11.89
2019-03-20T10:58:51.236Z,11.50
2019-03-20T11:01:20.375Z,11.83
2019-03-20T11:03:49.447Z,11.64
2019-03-20T11:06:18.487Z,11.65
2019-03-20T11:08:47.542Z,11.59
2019-03-20T11:11:26.536Z,11.40
2019-03-20T11:13:46.054Z,11.68
2019-03-20T11:16:15.091Z,11.62
2019-03-20T11:18:48.617Z,11.71
2019-03-20T11:21:16.955Z,11.77
2019-03-20T11:23:45.995Z,11.58
2019-03-20T11:26:15.148Z,11.66
2019-03-20T11:28:44.141Z,11.65
2019-03-20T11:31:13.619Z,11.52
2019-03-20T11:33:43.487Z,11.62
2019-03-20T11:36:12.634Z,11.73
2019-03-20T11:38:41.918Z,11.74
2019-03-20T11:41:10.989Z,11.96
2019-03-20T11:43:40.095Z,11.92
2019-03-20T11:46:09.363Z,11.82
2019-03-20T11:48:39.549Z,11.83
2019-03-20T11:51:08.961Z,11.83
2019-03-20T11:53:38.054Z,12.03
2019-03-20T11:56:08.051Z,12.15
2019-03-20T11:58:37.986Z,12.28
2019-03-20T12:01:07.118Z,12.41
2019-03-20T12:03:36.200Z,12.53
2019-03-20T12:06:05.429Z,12.54
2019-03-20T12:08:34.440Z,12.44
2019-03-20T12:11:03.565Z,12.46
2019-03-20T12:13:35.466Z,12.27
2019-03-20T12:16:07.083Z,12.28
2019-03-20T12:18:36.156Z,12.36
2019-03-20T12:21:05.548Z,12.48
2019-03-20T12:23:34.960Z,12.61
2019-03-20T12:26:04.144Z,12.70
2019-03-20T12:28:33.109Z,12.74
2019-03-20T12:31:02.484Z,12.83
2019-03-20T12:33:31.566Z,13.18
2019-03-20T12:36:00.600Z,13.00
2019-03-20T12:38:29.876Z,12.67
2019-03-20T12:40:59.569Z,12.85
2019-03-20T12:43:28.614Z,12.80
2019-03-20T12:45:57.951Z,12.73
2019-03-20T12:48:27.255Z,12.55
2019-03-20T12:50:56.376Z,12.63
2019-03-20T12:53:29.191Z,12.80
2019-03-20T12:55:59.343Z,12.89
2019-03-20T12:58:28.320Z,13.33
2019-03-20T13:00:57.279Z,13.51
2019-03-20T13:03:26.741Z,13.30
2019-03-20T13:05:56.600Z,13.22
2019-03-20T13:08:26.053Z,13.29
2019-03-20T13:10:55.433Z,13.21
2019-03-20T13:13:24.431Z,13.10
2019-03-20T13:15:54.199Z,13.35
2019-03-20T13:18:23.151Z,12.90
2019-03-20T13:20:52.228Z,12.85
2019-03-20T13:23:23.633Z,12.74
2019-03-20T13:25:52.679Z,13.04
2019-03-20T13:28:22.583Z,12.60
2019-03-20T13:30:55.257Z,12.50
2019-03-20T13:33:25.904Z,12.43
2019-03-20T13:35:53.729Z,12.44
2019-03-20T13:38:22.828Z,12.45
2019-03-20T13:40:51.848Z,12.38
2019-03-20T13:43:21.056Z,12.45
2019-03-20T13:45:50.210Z,12.48
2019-03-20T13:48:19.433Z,12.53
2019-03-20T13:50:48.540Z,12.56
2019-03-20T13:53:18.816Z,12.42
2019-03-20T13:55:47.863Z,12.47
2019-03-20T13:58:17.310Z,12.53
2019-03-20T14:00:46.530Z,12.62
2019-03-20T14:03:15.965Z,12.67
2019-03-20T14:05:45.101Z,12.71
2019-03-20T14:08:14.052Z,12.84
2019-03-20T14:10:50.331Z,12.92
2019-03-20T14:13:13.531Z,12.89
2019-03-20T14:15:43.639Z,13.15
2019-03-20T14:18:13.474Z,13.06
2019-03-20T14:20:42.941Z,13.09
2019-03-20T14:23:11.989Z,12.98
2019-03-20T14:25:40.966Z,13.02
2019-03-20T14:28:10.048Z,12.76
2019-03-20T14:30:40.193Z,12.82
2019-03-20T14:33:11.039Z,12.94
2019-03-20T14:35:40.439Z,12.87
2019-03-20T14:38:09.835Z,12.88
2019-03-20T14:40:39.252Z,12.94
2019-03-20T14:43:08.461Z,13.02
2019-03-20T14:45:37.374Z,13.03
2019-03-20T14:48:09.255Z,12.93
2019-03-20T14:50:39.035Z,12.92
2019-03-20T14:53:09.030Z,12.91
2019-03-20T14:55:38.169Z,13.02
2019-03-20T14:58:08.181Z,13.07
2019-03-20T15:00:37.317Z,13.12
2019-03-20T15:03:06.641Z,13.21
2019-03-20T15:05:35.813Z,13.13
2019-03-20T15:08:05.433Z,13.15
2019-03-20T15:10:34.503Z,13.19
2019-03-20T15:13:03.733Z,13.15
2019-03-20T15:15:52.987Z,13.10
2019-03-20T15:18:22.495Z,13.00
2019-03-20T15:20:51.539Z,13.11
2019-03-20T15:23:21.485Z,12.92
2019-03-20T15:25:51.414Z,13.34
2019-03-20T15:28:20.576Z,13.06
2019-03-20T15:30:49.895Z,13.08
2019-03-20T15:33:19.166Z,13.03
2019-03-20T15:35:48.372Z,12.97
2019-03-20T15:38:17.652Z,12.99
2019-03-20T15:40:55.945Z,12.93
2019-03-20T15:43:15.877Z,12.86
2019-03-20T15:45:44.956Z,12.92
2019-03-20T15:48:14.021Z,12.86
2019-03-20T15:50:43.532Z,12.88
2019-03-20T15:53:12.626Z,12.93
2019-03-20T15:55:44.398Z,12.90
2019-03-20T15:58:14.240Z,12.89
2019-03-20T16:00:43.629Z,12.94
2019-03-20T16:03:15.059Z,13.05
2019-03-20T16:05:44.112Z,13.09
2019-03-20T16:08:13.943Z,13.08
2019-03-20T16:10:43.010Z,13.07
2019-03-20T16:13:12.090Z,13.05
2019-03-20T16:15:41.623Z,13.00
2019-03-20T16:18:10.758Z,13.08
2019-03-20T16:20:42.064Z,13.08
2019-03-20T16:23:11.973Z,12.99
2019-03-20T16:25:41.165Z,13.32
2019-03-20T16:28:10.415Z,13.47
2019-03-20T16:30:42.396Z,13.27
2019-03-20T16:33:11.474Z,13.13
2019-03-20T16:35:40.477Z,13.08
2019-03-20T16:38:13.799Z,13.03
2019-03-20T16:40:45.728Z,12.94
2019-03-20T16:43:35.377Z,12.94
2019-03-20T16:46:06.524Z,12.79
2019-03-20T16:48:36.619Z,12.79
2019-03-20T16:51:08.656Z,12.75
2019-03-20T16:53:40.970Z,12.79
2019-03-20T16:56:10.203Z,12.71
2019-03-20T16:58:39.492Z,12.71
2019-03-20T17:01:09.123Z,12.70
2019-03-20T17:03:38.772Z,12.68
2019-03-20T17:06:09.218Z,12.64
2019-03-20T17:08:38.224Z,12.59
2019-03-20T17:11:30.447Z,12.51
2019-03-20T17:13:49.655Z,12.60
2019-03-20T17:16:19.483Z,12.50
2019-03-20T17:18:48.497Z,12.55
2019-03-20T17:21:17.952Z,12.47
2019-03-20T17:23:47.025Z,12.48
2019-03-20T17:26:16.946Z,12.41
2019-03-20T17:28:46.741Z,12.39
2019-03-20T17:31:15.850Z,12.36
2019-03-20T17:33:47.219Z,12.42
2019-03-20T17:36:16.219Z,12.43
2019-03-20T17:38:45.310Z,12.39
2019-03-20T17:41:14.507Z,12.41
2019-03-20T17:43:43.835Z,12.40
2019-03-20T17:46:12.875Z,12.45
2019-03-20T17:48:42.293Z,12.48
2019-03-20T17:51:13.538Z,12.39
2019-03-20T17:53:44.759Z,12.38
2019-03-20T17:56:13.788Z,12.37
2019-03-20T17:58:43.458Z,12.33
2019-03-20T18:01:12.487Z,12.15
2019-03-20T18:03:41.562Z,12.14
2019-03-20T18:06:11.474Z,12.14
2019-03-20T18:08:40.590Z,12.14
2019-03-20T18:11:09.580Z,12.15
2019-03-20T18:13:38.645Z,12.15
2019-03-20T18:16:08.111Z,12.13
2019-03-20T18:18:37.676Z,12.10
2019-03-20T18:21:06.793Z,12.08
2019-03-20T18:23:38.869Z,12.06
2019-03-20T18:26:08.413Z,12.04
2019-03-20T18:28:38.188Z,12.00
2019-03-20T18:31:08.773Z,12.02
2019-03-20T18:33:37.725Z,12.08
2019-03-20T18:36:07.155Z,12.05
2019-03-20T18:38:37.332Z,12.04
2019-03-20T18:41:06.530Z,12.05
2019-03-20T18:43:35.504Z,12.05
2019-03-20T18:46:04.968Z,12.05
2019-03-20T18:48:36.143Z,12.03
2019-03-20T18:51:04.334Z,12.09
2019-03-20T18:53:33.717Z,12.07
2019-03-20T18:56:02.746Z,12.07
2019-03-20T18:58:32.225Z,12.09
2019-03-20T19:01:02.168Z,12.10
2019-03-20T19:03:31.553Z,12.46
2019-03-20T19:06:04.055Z,12.23
2019-03-20T19:08:33.127Z,12.20
2019-03-20T19:11:05.017Z,12.22
2019-03-20T19:13:34.104Z,12.17
2019-03-20T19:16:03.511Z,12.12
2019-03-20T19:18:32.862Z,12.08
2019-03-20T19:21:02.005Z,12.05
2019-03-20T19:23:31.079Z,12.05
2019-03-20T19:26:00.176Z,12.02
2019-03-20T19:28:30.943Z,12.03
2019-03-20T19:31:00.295Z,12.43
2019-03-20T19:33:30.238Z,12.26
2019-03-20T19:36:00.316Z,12.16
2019-03-20T19:38:34.990Z,12.09
2019-03-20T19:40:59.045Z,12.05
2019-03-20T19:43:28.827Z,12.07
2019-03-20T19:45:59.397Z,12.05
2019-03-20T19:48:29.769Z,12.07
2019-03-20T19:50:59.044Z,12.07
2019-03-20T19:53:30.842Z,12.06
2019-03-20T19:56:00.281Z,12.06
2019-03-20T19:58:30.335Z,12.03
2019-03-20T20:00:59.686Z,12.03
2019-03-20T20:03:28.709Z,12.03
2019-03-20T20:05:59.009Z,12.03
2019-03-20T20:08:30.371Z,12.02
2019-03-20T20:10:59.390Z,12.00
2019-03-20T20:13:29.859Z,12.00
2019-03-20T20:15:59.231Z,12.00
2019-03-20T20:18:28.393Z,11.99
2019-03-20T20:20:59.485Z,11.94
2019-03-20T20:23:29.779Z,11.94
2019-03-20T20:26:00.997Z,11.87
2019-03-20T20:28:31.022Z,11.86
2019-03-20T20:31:01.393Z,11.86
2019-03-20T20:33:30.454Z,11.79
2019-03-20T20:35:59.925Z,12.04
2019-03-20T20:38:28.924Z,11.80
2019-03-20T20:40:58.229Z,11.71
2019-03-20T20:43:28.064Z,11.62
2019-03-20T20:45:59.925Z,11.90
2019-03-20T20:48:29.258Z,11.58
2019-03-20T20:50:58.305Z,11.53
2019-03-20T20:53:28.502Z,11.45
2019-03-20T20:55:59.367Z,11.39
2019-03-20T20:58:28.452Z,11.32
2019-03-20T21:01:15.181Z,11.25
2019-03-20T21:03:44.687Z,11.17
2019-03-20T21:06:14.085Z,11.15
2019-03-20T21:08:43.900Z,11.10
2019-03-20T21:11:13.329Z,11.09
2019-03-20T21:13:45.435Z,11.05
2019-03-20T21:16:15.632Z,10.98
2019-03-20T21:19:24.952Z,10.95
2019-03-20T21:22:35.578Z,10.89
2019-03-20T21:25:05.847Z,10.78
2019-03-20T21:28:29.734Z,10.74
2019-03-20T21:31:17.012Z,10.65
2019-03-20T21:34:31.766Z,10.60
2019-03-20T21:37:41.526Z,10.49
2019-03-20T21:40:13.557Z,10.44
2019-03-20T21:43:20.057Z,10.36
2019-03-20T21:46:34.693Z,10.26
2019-03-20T21:49:04.886Z,10.15
2019-03-20T21:51:35.374Z,10.06
2019-03-20T21:54:44.231Z,10.04
2019-03-20T21:57:35.733Z,9.98
2019-03-20T22:00:45.377Z,9.95
2019-03-20T22:03:15.982Z,9.94
2019-03-20T22:06:27.391Z,9.95
2019-03-20T22:08:58.062Z,9.96
2019-03-20T22:12:12.892Z,10.00
2019-03-20T22:14:44.908Z,10.00
2019-03-20T22:17:51.127Z,10.00
2019-03-20T22:20:35.399Z,10.05
2019-03-20T22:24:03.928Z,9.95
2019-03-20T22:27:10.466Z,9.85
2019-03-20T22:29:40.553Z,9.78
2019-03-20T22:32:50.188Z,9.77
2019-03-20T22:35:44.489Z,9.76
2019-03-20T22:38:27.128Z,9.75
2019-03-20T22:41:24.815Z,9.62
2019-03-20T22:44:01.924Z,9.50
2019-03-20T22:47:15.905Z,9.44
2019-03-20T22:50:32.176Z,9.41
2019-03-20T22:53:27.753Z,9.78
2019-03-20T22:56:35.801Z,9.52
2019-03-20T22:59:06.235Z,9.50
2019-03-20T23:01:53.846Z,9.48
2019-03-20T23:04:33.569Z,9.46
2019-03-20T23:07:03.719Z,9.39
2019-03-20T23:09:33.810Z,9.32
2019-03-20T23:12:06.772Z,9.25
2019-03-20T23:14:36.896Z,9.20
2019-03-20T23:17:07.097Z,9.17
2019-03-20T23:19:38.047Z,9.12
2019-03-20T23:22:08.457Z,9.41
2019-03-20T23:24:38.623Z,9.54
2019-03-20T23:27:11.899Z,9.66
2019-03-20T23:29:44.669Z,9.29
2019-03-20T23:32:14.771Z,9.15
2019-03-20T23:34:44.879Z,9.05
2019-03-20T23:37:14.970Z,8.99
2019-03-20T23:39:45.068Z,8.96
2019-03-20T23:42:15.169Z,8.86
2019-03-20T23:44:45.271Z,8.85
2019-03-20T23:47:15.346Z,9.15
2019-03-20T23:49:45.789Z,8.87
2019-03-20T23:52:15.910Z,8.77
2019-03-20T23:54:48.601Z,8.70
2019-03-20T23:57:19.259Z,8.65
2019-03-20T23:59:50.144Z,8.61
